Brugge Air Base ETUR

Flugplatz Daten

Name: Brugge Air Base

Ident: ETUR

Lat: 51,1996994

Long: 6,132080078

Platzhöhe: 0 ft

IataCode: BGN

City:

Metar

2016/10/04 05:16
YWLM 040516Z 30026G38KT CAVOK 22/04 Q1005 WIND DATA RETURNED TO SERVICE FM0516 29025G41KT CAVOK FM0730 29025G38KT CAVOK FM0516 MOD/SEV TURB BLW 5000FT

Taf

Gewünschte Webcam nicht vorhanden? Dann fügen Sie eine hinzu. Sie wird dann so schnell wie möglich freigeschaltet
Url: Title: